Time;durP1;ratioP1;P1;durP2;ratioP2;P2;SDS_P1;SDS_P2;PMS_P1;PMS_P2;Temp;Humidity;BMP_temperature;BMP_pressure;BME280_temperature;BME280_humidity;BME280_pressure;Samples;Min_cycle;Max_cycle;Signal;HPM_P1;HPM_P2
2021/06/22 00:06:00;;;;;;;;;23.67;23.67;;;;;;;;8822342;40;10617;-59
2021/06/22 00:12:02;;;;;;;;;24.00;21.00;;;;;;;;8822125;40;10740;-59
2021/06/22 00:18:04;;;;;;;;;26.00;25.67;;;;;;;;8822918;40;10193;-59
2021/06/22 00:24:07;;;;;;;;;25.00;25.00;;;;;;;;8822204;40;10142;-58
2021/06/22 00:30:10;;;;;;;;;23.33;22.67;;;;;;;;8823041;40;10201;-58
2021/06/22 00:36:13;;;;;;;;;25.33;25.00;;;;;;;;8821955;40;10018;-59
2021/06/22 00:42:15;;;;;;;;;25.67;25.33;;;;;;;;8823197;40;10064;-59
2021/06/22 00:48:18;;;;;;;;;21.33;21.00;;;;;;;;8818911;40;10154;-59
2021/06/22 00:54:21;;;;;;;;;31.33;29.33;;;;;;;;8820257;40;10057;-58
2021/06/22 01:00:23;;;;;;;;;29.67;29.00;;;;;;;;8821909;40;10671;-59
2021/06/22 01:06:26;;;;;;;;;33.33;30.67;;;;;;;;8821937;40;10072;-58
2021/06/22 01:12:51;;;;;;;;;34.33;30.00;;;;;;;;8822301;40;10095;-59
2021/06/22 01:19:02;;;;;;;;;29.33;25.67;;;;;;;;8836490;40;10082;-59
2021/06/22 01:25:23;;;;;;;;;31.33;29.33;;;;;;;;8820092;40;11338;-59
2021/06/22 01:31:28;;;;;;;;;29.33;28.33;;;;;;;;8827792;40;10281;-59
2021/06/22 01:37:34;;;;;;;;;38.00;33.00;;;;;;;;8821467;40;10803;-59
2021/06/22 01:43:36;;;;;;;;;36.00;35.00;;;;;;;;8820838;40;11622;-59
2021/06/22 01:49:39;;;;;;;;;34.00;32.00;;;;;;;;8820045;40;10070;-58
2021/06/22 01:55:46;;;;;;;;;32.00;29.67;;;;;;;;8819823;40;10061;-58
2021/06/22 02:01:48;;;;;;;;;31.33;30.00;;;;;;;;8821915;40;10236;-58
2021/06/22 02:08:06;;;;;;;;;32.00;29.00;;;;;;;;8823297;40;10063;-59
2021/06/22 02:14:09;;;;;;;;;31.00;30.00;;;;;;;;8823144;40;10132;-59
2021/06/22 02:20:14;;;;;;;;;30.67;29.67;;;;;;;;8822471;40;10042;-58
2021/06/22 02:26:19;;;;;;;;;26.00;26.00;;;;;;;;8823126;40;10082;-58
2021/06/22 02:32:23;;;;;;;;;27.67;25.00;;;;;;;;8821893;40;10026;-59
2021/06/22 02:38:27;;;;;;;;;32.00;27.67;;;;;;;;8824171;40;10128;-59
2021/06/22 02:44:32;;;;;;;;;26.67;25.00;;;;;;;;8838199;40;10193;-59
2021/06/22 02:50:35;;;;;;;;;30.67;28.00;;;;;;;;8838722;40;10148;-58
2021/06/22 02:56:38;;;;;;;;;26.00;24.67;;;;;;;;8821442;40;9982;-59
2021/06/22 03:02:43;;;;;;;;;24.33;21.00;;;;;;;;8829049;40;10558;-59
2021/06/22 03:08:46;;;;;;;;;22.00;21.67;;;;;;;;8839766;40;10053;-59
2021/06/22 03:14:49;;;;;;;;;23.33;20.00;;;;;;;;8837842;40;10202;-59
2021/06/22 03:20:59;;;;;;;;;22.00;21.00;;;;;;;;8830140;40;10277;-57
2021/06/22 03:27:02;;;;;;;;;27.00;25.00;;;;;;;;8830514;40;10448;-58
2021/06/22 03:33:17;;;;;;;;;26.67;21.33;;;;;;;;8829012;40;10418;-58
2021/06/22 03:39:19;;;;;;;;;26.33;23.00;;;;;;;;8823994;40;10229;-58
2021/06/22 03:45:22;;;;;;;;;20.67;20.33;;;;;;;;8822551;40;10263;-59
2021/06/22 03:51:26;;;;;;;;;25.33;21.67;;;;;;;;8823807;40;10299;-57
2021/06/22 03:57:28;;;;;;;;;20.67;19.00;;;;;;;;8822318;40;10611;-59
2021/06/22 04:03:44;;;;;;;;;18.00;18.00;;;;;;;;9856374;23;10614;-60
2021/06/22 04:09:57;;;;;;;;;23.00;21.67;;;;;;;;8845780;40;10557;-61
2021/06/22 04:16:00;;;;;;;;;19.25;14.25;;;;;;;;8851786;40;10914;-60
2021/06/22 04:22:03;;;;;;;;;21.33;21.33;;;;;;;;8847140;40;10654;-59
2021/06/22 04:28:15;;;;;;;;;30.00;25.75;;;;;;;;8847829;40;10997;-59
2021/06/22 04:34:19;;;;;;;;;21.33;20.00;;;;;;;;8833305;40;10865;-60
2021/06/22 04:40:21;;;;;;;;;19.50;19.25;;;;;;;;8835734;40;10878;-59
2021/06/22 04:46:23;;;;;;;;;23.50;20.75;;;;;;;;8826490;40;10874;-60
2021/06/22 04:52:25;;;;;;;;;22.75;19.25;;;;;;;;8826076;40;11019;-60
2021/06/22 04:58:31;;;;;;;;;20.75;18.50;;;;;;;;8826269;40;11320;-60
2021/06/22 05:04:34;;;;;;;;;22.75;22.75;;;;;;;;8839121;40;10897;-60
2021/06/22 05:10:36;;;;;;;;;18.75;17.00;;;;;;;;8839581;40;10789;-61
2021/06/22 05:16:38;;;;;;;;;20.25;20.25;;;;;;;;8847959;40;10888;-61
2021/06/22 05:22:40;;;;;;;;;21.25;19.75;;;;;;;;8842043;40;11544;-62
2021/06/22 05:28:42;;;;;;;;;24.75;22.25;;;;;;;;8839326;40;10611;-62
2021/06/22 05:34:44;;;;;;;;;21.75;20.75;;;;;;;;8842601;40;10482;-60
2021/06/22 05:40:46;;;;;;;;;21.75;21.75;;;;;;;;8843833;40;10531;-60
2021/06/22 05:46:48;;;;;;;;;22.50;22.25;;;;;;;;8840230;40;10527;-60
2021/06/22 05:52:51;;;;;;;;;22.00;20.75;;;;;;;;8840506;40;10643;-62
2021/06/22 05:58:53;;;;;;;;;18.00;17.25;;;;;;;;8838264;40;11370;-63
2021/06/22 06:04:55;;;;;;;;;24.00;20.50;;;;;;;;8835508;40;10598;-62
2021/06/22 06:10:59;;;;;;;;;27.75;23.25;;;;;;;;8838436;40;10488;-61
2021/06/22 06:17:02;;;;;;;;;22.75;22.75;;;;;;;;8844363;40;11061;-62
2021/06/22 06:23:05;;;;;;;;;19.25;19.00;;;;;;;;8836480;40;10520;-61
2021/06/22 06:29:18;;;;;;;;;20.50;20.25;;;;;;;;8836077;40;10464;-62
2021/06/22 06:35:21;;;;;;;;;16.75;16.75;;;;;;;;8841025;40;11775;-60
2021/06/22 06:41:24;;;;;;;;;19.75;18.00;;;;;;;;8843635;40;10558;-60
2021/06/22 06:47:26;;;;;;;;;13.00;13.00;;;;;;;;8839042;40;10477;-61
2021/06/22 06:53:28;;;;;;;;;17.50;17.50;;;;;;;;8837755;40;10688;-61
2021/06/22 06:59:30;;;;;;;;;16.25;16.00;;;;;;;;8846370;40;10552;-62
2021/06/22 07:05:33;;;;;;;;;23.50;20.50;;;;;;;;8832178;40;10498;-62
2021/06/22 07:11:35;;;;;;;;;22.00;22.00;;;;;;;;8839455;40;10500;-61
2021/06/22 07:17:37;;;;;;;;;19.00;19.00;;;;;;;;8844238;40;10452;-62
2021/06/22 07:23:40;;;;;;;;;15.50;14.75;;;;;;;;8831945;40;10455;-63
2021/06/22 07:29:42;;;;;;;;;16.50;15.75;;;;;;;;8833352;40;10518;-64
2021/06/22 07:35:44;;;;;;;;;20.50;18.75;;;;;;;;8824723;40;11116;-63
2021/06/22 07:41:46;;;;;;;;;22.25;17.75;;;;;;;;8831377;40;10495;-62
2021/06/22 07:47:48;;;;;;;;;14.25;14.25;;;;;;;;8849500;40;10440;-63
2021/06/22 07:53:57;;;;;;;;;16.00;16.00;;;;;;;;8844251;40;10663;-64
2021/06/22 08:00:07;;;;;;;;;20.50;18.50;;;;;;;;8834066;40;10576;-63
2021/06/22 08:06:11;;;;;;;;;20.00;18.50;;;;;;;;8846029;40;11064;-62
2021/06/22 08:12:14;;;;;;;;;24.00;22.50;;;;;;;;8848549;40;10579;-62
2021/06/22 08:18:16;;;;;;;;;22.00;21.25;;;;;;;;8836866;40;10429;-61
2021/06/22 08:24:19;;;;;;;;;25.50;25.50;;;;;;;;8835544;40;11217;-62
2021/06/22 08:30:28;;;;;;;;;31.25;26.25;;;;;;;;8836581;40;11335;-62
2021/06/22 08:36:30;;;;;;;;;22.50;20.75;;;;;;;;8835101;40;10533;-64
2021/06/22 08:42:35;;;;;;;;;29.75;28.50;;;;;;;;8837743;40;10684;-63
2021/06/22 08:48:37;;;;;;;;;26.50;25.50;;;;;;;;8836648;40;10542;-63
2021/06/22 08:54:40;;;;;;;;;33.75;28.00;;;;;;;;8836225;40;10565;-63
2021/06/22 09:00:50;;;;;;;;;26.25;25.50;;;;;;;;8836869;40;10723;-64
2021/06/22 09:06:52;;;;;;;;;29.00;29.00;;;;;;;;8848537;40;10695;-63
2021/06/22 09:12:57;;;;;;;;;21.75;20.25;;;;;;;;8834225;40;10601;-62
2021/06/22 09:19:05;;;;;;;;;33.00;30.00;;;;;;;;8838964;40;10762;-61
2021/06/22 09:25:11;;;;;;;;;37.00;34.00;;;;;;;;8838707;40;10574;-61
2021/06/22 09:31:15;;;;;;;;;27.75;26.75;;;;;;;;8830486;40;10433;-63
2021/06/22 09:37:17;;;;;;;;;27.50;25.75;;;;;;;;8837235;40;11417;-63
2021/06/22 09:43:19;;;;;;;;;29.00;27.00;;;;;;;;8836687;40;10655;-62
2021/06/22 09:49:32;;;;;;;;;28.00;25.75;;;;;;;;8832381;40;10688;-64
2021/06/22 09:55:44;;;;;;;;;31.75;28.50;;;;;;;;8834068;40;11143;-61
2021/06/22 10:01:47;;;;;;;;;30.25;29.75;;;;;;;;8837010;40;10623;-62
2021/06/22 10:08:01;;;;;;;;;34.00;32.75;;;;;;;;8832107;40;10742;-65
2021/06/22 10:14:07;;;;;;;;;29.50;27.00;;;;;;;;8834439;40;10788;-63
2021/06/22 10:20:11;;;;;;;;;56.75;47.25;;;;;;;;8832025;40;11277;-63
2021/06/22 10:26:13;;;;;;;;;28.50;25.75;;;;;;;;8839424;40;10566;-63
2021/06/22 10:32:16;;;;;;;;;25.00;22.50;;;;;;;;8837157;40;10540;-65
2021/06/22 10:38:24;;;;;;;;;22.25;22.25;;;;;;;;8846291;40;10559;-62
2021/06/22 10:44:27;;;;;;;;;36.50;32.75;;;;;;;;8839422;40;11200;-63
2021/06/22 10:50:31;;;;;;;;;20.75;20.75;;;;;;;;8840147;40;11077;-65
2021/06/22 10:56:38;;;;;;;;;32.00;30.00;;;;;;;;8836716;40;10503;-63
2021/06/22 11:03:10;;;;;;;;;39.25;36.75;;;;;;;;8843992;40;10662;-66
2021/06/22 11:09:17;;;;;;;;;50.50;42.00;;;;;;;;8837833;40;10642;-63
2021/06/22 11:15:20;;;;;;;;;26.50;25.25;;;;;;;;8835622;40;10557;-65
2021/06/22 11:21:27;;;;;;;;;31.75;30.75;;;;;;;;8837869;40;10506;-62
2021/06/22 11:27:29;;;;;;;;;26.75;23.50;;;;;;;;8837641;40;10642;-62
2021/06/22 11:33:33;;;;;;;;;22.75;18.50;;;;;;;;8835301;40;11136;-63
2021/06/22 11:39:37;;;;;;;;;24.50;23.00;;;;;;;;8828135;40;10586;-62
2021/06/22 11:45:39;;;;;;;;;23.75;20.75;;;;;;;;8835682;40;10513;-61
2021/06/22 11:51:48;;;;;;;;;22.25;21.25;;;;;;;;8841842;40;10553;-61
2021/06/22 11:57:52;;;;;;;;;27.25;21.75;;;;;;;;8834321;40;10535;-63
2021/06/22 12:03:54;;;;;;;;;17.25;17.25;;;;;;;;8829338;40;10519;-64
2021/06/22 12:09:56;;;;;;;;;30.00;24.75;;;;;;;;8822840;40;10535;-62
2021/06/22 12:16:11;;;;;;;;;42.00;37.25;;;;;;;;8840652;40;10599;-64
2021/06/22 12:22:15;;;;;;;;;20.00;18.00;;;;;;;;8859548;40;10508;-65
2021/06/22 12:28:18;;;;;;;;;17.75;17.75;;;;;;;;8837806;40;10393;-66
2021/06/22 12:34:22;;;;;;;;;23.25;21.50;;;;;;;;8843328;40;10535;-63
2021/06/22 12:40:24;;;;;;;;;19.00;18.00;;;;;;;;8839269;40;10474;-63
2021/06/22 12:46:28;;;;;;;;;18.50;17.75;;;;;;;;8859320;40;10488;-63
2021/06/22 12:52:33;;;;;;;;;19.75;16.75;;;;;;;;8838122;40;10775;-63
2021/06/22 12:58:52;;;;;;;;;20.75;19.50;;;;;;;;8840256;40;10444;-62
2021/06/22 13:04:55;;;;;;;;;31.25;24.00;;;;;;;;8839199;40;10563;-63
2021/06/22 13:10:57;;;;;;;;;18.25;18.25;;;;;;;;8848851;40;10618;-63
2021/06/22 13:17:02;;;;;;;;;16.00;16.00;;;;;;;;8845524;40;11012;-60
2021/06/22 13:23:07;;;;;;;;;18.75;18.75;;;;;;;;8837957;40;10549;-63
2021/06/22 13:29:09;;;;;;;;;18.50;18.50;;;;;;;;8819328;40;10532;-62
2021/06/22 13:35:18;;;;;;;;;16.00;16.00;;;;;;;;8837225;40;10460;-64
2021/06/22 13:41:24;;;;;;;;;17.00;17.00;;;;;;;;8831431;40;11108;-63
2021/06/22 13:47:37;;;;;;;;;24.50;24.25;;;;;;;;8833646;40;11060;-63
2021/06/22 13:53:46;;;;;;;;;14.75;14.25;;;;;;;;8842327;40;10531;-64
2021/06/22 13:59:48;;;;;;;;;18.25;14.25;;;;;;;;8842516;40;10474;-64
2021/06/22 14:05:50;;;;;;;;;13.75;13.75;;;;;;;;8840631;40;10646;-63
2021/06/22 14:11:54;;;;;;;;;9.75;9.50;;;;;;;;8846166;40;10420;-63
2021/06/22 14:17:58;;;;;;;;;25.25;25.25;;;;;;;;8847443;40;10455;-63
2021/06/22 14:24:00;;;;;;;;;18.50;17.00;;;;;;;;8849809;40;10507;-60
2021/06/22 14:30:03;;;;;;;;;17.75;15.00;;;;;;;;8849086;40;10457;-62
2021/06/22 14:36:17;;;;;;;;;17.50;15.75;;;;;;;;8849751;40;11001;-63
2021/06/22 14:42:19;;;;;;;;;21.25;20.25;;;;;;;;8862876;40;11152;-61
2021/06/22 14:48:23;;;;;;;;;18.25;18.25;;;;;;;;8853442;40;11138;-61
2021/06/22 14:54:25;;;;;;;;;13.75;13.75;;;;;;;;8849874;40;10437;-63
2021/06/22 15:00:28;;;;;;;;;15.75;15.75;;;;;;;;8852460;40;10524;-65
2021/06/22 15:06:30;;;;;;;;;15.50;15.50;;;;;;;;8837435;40;10491;-62
2021/06/22 15:12:32;;;;;;;;;14.00;13.25;;;;;;;;8836125;40;10494;-62
2021/06/22 15:18:34;;;;;;;;;17.25;17.00;;;;;;;;8849555;40;10486;-62
2021/06/22 15:24:36;;;;;;;;;15.25;15.25;;;;;;;;8847342;40;10449;-62
2021/06/22 15:30:38;;;;;;;;;17.50;15.25;;;;;;;;8848626;40;10566;-62
2021/06/22 15:36:40;;;;;;;;;17.00;15.00;;;;;;;;8849446;40;10454;-61
2021/06/22 15:42:44;;;;;;;;;12.00;12.00;;;;;;;;8863420;40;10469;-62
2021/06/22 15:49:05;;;;;;;;;18.25;18.25;;;;;;;;8856410;40;10497;-63
2021/06/22 15:55:16;;;;;;;;;12.50;12.50;;;;;;;;8823653;40;10470;-62
2021/06/22 16:01:18;;;;;;;;;17.75;17.75;;;;;;;;8837105;40;10494;-60
2021/06/22 16:07:20;;;;;;;;;17.25;17.25;;;;;;;;8847943;40;10460;-61
2021/06/22 16:13:22;;;;;;;;;16.00;14.75;;;;;;;;8849236;40;10558;-60
2021/06/22 16:19:24;;;;;;;;;16.25;14.00;;;;;;;;8848399;40;10536;-62
2021/06/22 16:25:28;;;;;;;;;14.00;13.25;;;;;;;;8848034;40;10474;-61
2021/06/22 16:31:31;;;;;;;;;17.75;17.00;;;;;;;;8849294;40;10671;-62
2021/06/22 16:37:37;;;;;;;;;15.50;15.50;;;;;;;;8847649;40;10476;-60
2021/06/22 16:43:39;;;;;;;;;16.25;16.25;;;;;;;;8847431;40;10516;-60
2021/06/22 16:49:41;;;;;;;;;15.00;14.50;;;;;;;;8849283;40;11188;-62
2021/06/22 16:55:43;;;;;;;;;16.75;16.00;;;;;;;;8848152;40;10464;-61
2021/06/22 17:01:46;;;;;;;;;13.75;13.75;;;;;;;;8848718;40;10518;-60
2021/06/22 17:07:48;;;;;;;;;15.25;14.50;;;;;;;;8848669;40;10479;-60
2021/06/22 17:13:50;;;;;;;;;19.00;15.75;;;;;;;;8847838;40;10538;-62
2021/06/22 17:19:52;;;;;;;;;16.00;16.00;;;;;;;;8847753;40;10445;-61
2021/06/22 17:25:55;;;;;;;;;16.25;16.25;;;;;;;;8846844;40;10531;-61
2021/06/22 17:31:57;;;;;;;;;14.00;14.00;;;;;;;;8846031;40;10503;-60
2021/06/22 17:37:59;;;;;;;;;23.25;21.00;;;;;;;;8847494;40;10708;-59
2021/06/22 17:44:02;;;;;;;;;21.00;20.00;;;;;;;;8846452;40;10489;-61
2021/06/22 17:50:06;;;;;;;;;17.00;14.00;;;;;;;;8845837;40;10737;-61
2021/06/22 17:56:09;;;;;;;;;20.75;20.00;;;;;;;;8846321;40;10456;-61
2021/06/22 18:02:12;;;;;;;;;17.25;17.25;;;;;;;;8846441;40;10678;-62
2021/06/22 18:08:15;;;;;;;;;36.00;35.75;;;;;;;;8845876;40;10556;-61
2021/06/22 18:14:17;;;;;;;;;28.75;24.25;;;;;;;;8846099;40;10412;-63
2021/06/22 18:20:21;;;;;;;;;21.25;21.25;;;;;;;;8847451;40;10571;-61
2021/06/22 18:26:25;;;;;;;;;24.75;23.00;;;;;;;;8846523;40;10561;-62
2021/06/22 18:32:27;;;;;;;;;28.25;26.75;;;;;;;;8847162;40;10438;-62
2021/06/22 18:38:30;;;;;;;;;24.25;23.75;;;;;;;;8846853;40;10564;-60
2021/06/22 18:44:32;;;;;;;;;26.25;26.25;;;;;;;;8847945;40;10476;-60
2021/06/22 18:50:35;;;;;;;;;19.00;12.50;;;;;;;;8850105;40;10449;-62
2021/06/22 18:56:37;;;;;;;;;22.50;20.00;;;;;;;;8849503;40;10402;-61
2021/06/22 19:02:41;;;;;;;;;16.00;15.25;;;;;;;;8849836;40;10461;-61
2021/06/22 19:08:43;;;;;;;;;15.25;15.25;;;;;;;;8849942;40;10475;-61
2021/06/22 19:14:45;;;;;;;;;13.75;13.75;;;;;;;;8848675;40;10993;-60
2021/06/22 19:20:47;;;;;;;;;20.75;19.25;;;;;;;;8849755;40;10593;-60
2021/06/22 19:26:50;;;;;;;;;21.75;20.00;;;;;;;;8848672;40;10775;-61
2021/06/22 19:32:53;;;;;;;;;20.75;20.75;;;;;;;;8849473;40;10644;-62
2021/06/22 19:38:55;;;;;;;;;19.00;18.50;;;;;;;;8849046;40;11165;-62
2021/06/22 19:44:59;;;;;;;;;20.00;16.75;;;;;;;;8849563;40;10588;-61
2021/06/22 19:51:04;;;;;;;;;19.25;15.50;;;;;;;;8849276;40;10599;-61
2021/06/22 19:57:07;;;;;;;;;17.75;17.75;;;;;;;;8846973;40;10838;-61
2021/06/22 20:03:09;;;;;;;;;19.25;18.50;;;;;;;;8850135;40;10674;-62
2021/06/22 20:09:11;;;;;;;;;19.50;19.00;;;;;;;;8848222;40;10707;-62
2021/06/22 20:15:14;;;;;;;;;18.00;18.00;;;;;;;;8849233;40;10678;-60
2021/06/22 20:21:16;;;;;;;;;21.50;21.50;;;;;;;;8848591;40;10749;-61
2021/06/22 20:27:18;;;;;;;;;23.00;19.00;;;;;;;;8846926;40;11261;-61
2021/06/22 20:33:20;;;;;;;;;21.25;20.75;;;;;;;;8848884;40;10908;-61
2021/06/22 20:39:22;;;;;;;;;20.50;20.50;;;;;;;;8847785;40;10652;-61
2021/06/22 20:45:24;;;;;;;;;24.50;21.00;;;;;;;;8847203;40;10782;-60
2021/06/22 20:51:26;;;;;;;;;22.50;20.50;;;;;;;;8847954;40;10756;-60
2021/06/22 20:57:29;;;;;;;;;26.50;25.25;;;;;;;;8847149;40;10848;-62
2021/06/22 21:03:31;;;;;;;;;21.00;20.00;;;;;;;;8847020;40;10787;-61
2021/06/22 21:09:33;;;;;;;;;27.25;21.50;;;;;;;;8848443;40;10862;-60
2021/06/22 21:15:35;;;;;;;;;25.00;23.75;;;;;;;;8847027;40;10784;-61
2021/06/22 21:21:37;;;;;;;;;23.00;21.50;;;;;;;;8847459;40;10757;-60
2021/06/22 21:27:42;;;;;;;;;26.25;22.25;;;;;;;;8847423;40;10690;-61
2021/06/22 21:33:44;;;;;;;;;23.25;20.00;;;;;;;;8847327;40;10686;-60
2021/06/22 21:39:46;;;;;;;;;19.75;19.75;;;;;;;;8846992;40;10663;-60
2021/06/22 21:45:48;;;;;;;;;26.00;22.50;;;;;;;;8847152;40;10703;-60
2021/06/22 21:51:54;;;;;;;;;20.50;19.25;;;;;;;;8846980;40;10579;-60
2021/06/22 21:57:56;;;;;;;;;22.25;19.25;;;;;;;;8846626;40;11014;-61
2021/06/22 22:03:58;;;;;;;;;16.75;16.50;;;;;;;;8846430;40;11282;-60
2021/06/22 22:10:00;;;;;;;;;20.25;19.50;;;;;;;;8846599;40;10866;-60
2021/06/22 22:16:02;;;;;;;;;16.50;15.25;;;;;;;;8846112;40;10987;-61
2021/06/22 22:22:04;;;;;;;;;15.00;15.00;;;;;;;;8850739;40;11715;-61
2021/06/22 22:28:06;;;;;;;;;12.75;12.50;;;;;;;;8849581;40;10696;-60
2021/06/22 22:34:08;;;;;;;;;7.25;7.25;;;;;;;;8849827;40;11412;-61
2021/06/22 22:40:11;;;;;;;;;17.75;17.50;;;;;;;;8850673;40;10944;-59
2021/06/22 22:46:15;;;;;;;;;19.25;19.25;;;;;;;;8849337;40;11143;-60
2021/06/22 22:52:21;;;;;;;;;15.50;15.50;;;;;;;;8850688;40;10852;-60
2021/06/22 22:58:24;;;;;;;;;16.25;15.75;;;;;;;;8848733;40;11041;-60
2021/06/22 23:04:26;;;;;;;;;18.50;15.75;;;;;;;;8849628;40;10762;-61
2021/06/22 23:10:28;;;;;;;;;18.50;16.75;;;;;;;;8849021;40;10916;-61
2021/06/22 23:16:30;;;;;;;;;17.25;17.00;;;;;;;;8848827;40;10759;-61
2021/06/22 23:22:33;;;;;;;;;20.50;17.75;;;;;;;;8850642;40;10750;-61
2021/06/22 23:28:35;;;;;;;;;16.00;14.67;;;;;;;;8846625;40;11075;-60
2021/06/22 23:34:38;;;;;;;;;14.25;14.25;;;;;;;;8850382;40;10769;-60
2021/06/22 23:40:40;;;;;;;;;17.50;16.75;;;;;;;;8848869;40;11122;-61
2021/06/22 23:46:42;;;;;;;;;15.75;14.75;;;;;;;;8849418;40;10788;-60
2021/06/22 23:52:44;;;;;;;;;17.00;16.50;;;;;;;;8849261;40;10760;-60
2021/06/22 23:58:46;;;;;;;;;16.00;16.00;;;;;;;;8848217;40;10789;-60
